createdAt,value
2023-02-12T00:00:31.388Z,0.60
2023-02-12T00:01:31.396Z,0.57
2023-02-12T00:02:31.351Z,0.63
2023-02-12T00:03:31.383Z,0.75
2023-02-12T00:04:31.337Z,0.72
2023-02-12T00:05:31.303Z,0.78
2023-02-12T00:06:31.342Z,0.75
2023-02-12T00:07:31.352Z,0.78
2023-02-12T00:08:31.353Z,0.70
2023-02-12T00:09:31.281Z,0.75
2023-02-12T00:10:31.272Z,0.74
2023-02-12T00:11:31.294Z,0.74
2023-02-12T00:12:31.240Z,0.80
2023-02-12T00:13:31.236Z,0.90
2023-02-12T00:14:31.274Z,0.90
2023-02-12T00:15:31.274Z,0.95
2023-02-12T00:16:31.220Z,0.80
2023-02-12T00:17:31.231Z,0.75
2023-02-12T00:18:31.189Z,0.75
2023-02-12T00:19:31.170Z,0.74
2023-02-12T00:20:31.160Z,0.68
2023-02-12T00:21:31.225Z,0.59
2023-02-12T00:22:31.141Z,0.62
2023-02-12T00:23:31.132Z,0.37
2023-02-12T00:24:31.121Z,0.34
2023-02-12T00:25:31.104Z,0.16
2023-02-12T00:26:31.105Z,0.08
2023-02-12T00:27:31.159Z,-0.14
2023-02-12T00:28:31.093Z,-0.23
2023-02-12T00:29:31.092Z,-0.34
2023-02-12T00:30:31.115Z,-0.34
2023-02-12T00:31:31.137Z,-0.38
2023-02-12T00:32:31.036Z,-0.44
2023-02-12T00:33:31.035Z,-0.44
2023-02-12T00:34:31.026Z,-0.35
2023-02-12T00:35:31.011Z,-0.30
2023-02-12T00:36:31.033Z,-0.19
2023-02-12T00:37:30.990Z,0.05
2023-02-12T00:38:30.984Z,0.25
2023-02-12T00:39:30.994Z,0.31
2023-02-12T00:40:30.946Z,0.25
2023-02-12T00:41:30.983Z,0.34
2023-02-12T00:42:30.938Z,0.45
2023-02-12T00:43:30.934Z,0.59
2023-02-12T00:44:30.906Z,0.56
2023-02-12T00:45:30.900Z,0.63
2023-02-12T00:46:31.058Z,0.74
2023-02-12T00:47:30.900Z,0.67
2023-02-12T00:48:30.866Z,0.74
2023-02-12T00:49:30.850Z,0.80
2023-02-12T00:50:31.956Z,0.86
2023-02-12T00:51:30.858Z,0.84
2023-02-12T00:52:30.876Z,0.96
2023-02-12T00:53:30.826Z,1.00
2023-02-12T00:54:30.807Z,1.02
2023-02-12T00:55:30.804Z,1.04
2023-02-12T00:56:30.814Z,1.04
2023-02-12T00:57:30.793Z,1.08
2023-02-12T00:58:30.780Z,1.11
2023-02-12T00:59:30.777Z,1.10
2023-02-12T01:00:30.757Z,1.21
2023-02-12T01:01:30.819Z,1.26
2023-02-12T01:02:30.737Z,1.20
2023-02-12T01:03:30.703Z,1.26
2023-02-12T01:04:30.708Z,1.26
2023-02-12T01:05:30.696Z,1.28
2023-02-12T01:06:30.760Z,1.38
2023-02-12T01:07:30.679Z,1.35
2023-02-12T01:08:30.708Z,1.28
2023-02-12T01:09:30.676Z,1.26
2023-02-12T01:10:30.655Z,1.25
2023-02-12T01:11:30.688Z,1.31
2023-02-12T01:12:30.652Z,1.16
2023-02-12T01:13:30.721Z,1.08
2023-02-12T01:14:30.671Z,0.99
2023-02-12T01:15:30.670Z,1.04
2023-02-12T01:16:30.724Z,1.08
2023-02-12T01:17:30.590Z,1.10
2023-02-12T01:18:30.594Z,1.08
2023-02-12T01:19:30.592Z,1.10
2023-02-12T01:20:30.583Z,1.02
2023-02-12T01:21:30.632Z,1.02
2023-02-12T01:22:30.523Z,1.02
2023-02-12T01:23:30.548Z,0.98
2023-02-12T01:24:30.572Z,1.00
2023-02-12T01:25:30.494Z,0.96
2023-02-12T01:26:30.507Z,0.77
2023-02-12T01:27:30.487Z,0.77
2023-02-12T01:28:30.545Z,0.62
2023-02-12T01:29:30.458Z,0.43
2023-02-12T01:30:30.441Z,0.30
2023-02-12T01:31:30.551Z,0.20
2023-02-12T01:32:30.429Z,-0.01
2023-02-12T01:33:30.415Z,-0.24
2023-02-12T01:34:30.407Z,-0.41
2023-02-12T01:35:30.398Z,-0.55
2023-02-12T01:36:30.397Z,-0.55
2023-02-12T01:37:30.402Z,-0.71
2023-02-12T01:38:30.424Z,-0.73
2023-02-12T01:39:30.344Z,-0.83
2023-02-12T01:40:30.345Z,-0.96
2023-02-12T01:41:30.344Z,-0.97
2023-02-12T01:42:30.371Z,-1.11
2023-02-12T01:43:30.300Z,-1.08
2023-02-12T01:44:30.306Z,-1.17
2023-02-12T01:45:30.288Z,-1.10
2023-02-12T01:46:30.577Z,-0.96
2023-02-12T01:47:30.248Z,-0.77
2023-02-12T01:48:30.262Z,-0.52
2023-02-12T01:49:30.247Z,-0.39
2023-02-12T01:50:30.273Z,-0.09
2023-02-12T01:51:30.221Z,0.01
2023-02-12T01:52:30.305Z,0.01
2023-02-12T01:53:30.259Z,-0.02
2023-02-12T01:54:30.200Z,-0.08
2023-02-12T01:55:30.172Z,0.02
2023-02-12T01:56:30.300Z,-0.17
2023-02-12T01:57:30.180Z,-0.16
2023-02-12T01:58:30.146Z,-0.23
2023-02-12T01:59:30.147Z,-0.35
2023-02-12T02:00:30.140Z,-0.37
2023-02-12T02:01:30.236Z,-0.53
2023-02-12T02:02:30.111Z,-0.55
2023-02-12T02:03:30.132Z,-0.62
2023-02-12T02:04:30.185Z,-0.62
2023-02-12T02:05:30.072Z,-0.70
2023-02-12T02:06:30.133Z,-0.76
2023-02-12T02:07:30.064Z,-0.81
2023-02-12T02:08:30.050Z,-0.96
2023-02-12T02:09:30.043Z,-0.85
2023-02-12T02:10:30.044Z,-0.70
2023-02-12T02:11:30.035Z,-0.68
2023-02-12T02:12:30.082Z,-0.70
2023-02-12T02:13:30.013Z,-0.74
2023-02-12T02:14:29.994Z,-0.77
2023-02-12T02:15:29.991Z,-0.68
2023-02-12T02:16:30.044Z,-0.58
2023-02-12T02:17:29.948Z,-0.67
2023-02-12T02:18:29.965Z,-0.53
2023-02-12T02:19:29.942Z,-0.62
2023-02-12T02:20:29.918Z,-0.55
2023-02-12T02:21:29.931Z,-0.58
2023-02-12T02:22:30.002Z,-0.77
2023-02-12T02:23:29.882Z,-0.78
2023-02-12T02:24:29.971Z,-1.00
2023-02-12T02:25:29.981Z,-0.93
2023-02-12T02:26:29.856Z,-1.02
2023-02-12T02:27:29.847Z,-1.11
2023-02-12T02:28:29.908Z,-1.18
2023-02-12T02:29:29.855Z,-1.36
2023-02-12T02:30:29.852Z,-1.33
2023-02-12T02:31:30.047Z,-1.25
2023-02-12T02:32:29.804Z,-1.23
2023-02-12T02:33:29.788Z,-1.31
2023-02-12T02:34:29.779Z,-1.33
2023-02-12T02:35:29.798Z,-1.43
2023-02-12T02:36:29.761Z,-1.44
2023-02-12T02:37:29.743Z,-1.54
2023-02-12T02:38:29.729Z,-1.53
2023-02-12T02:39:29.814Z,-1.54
2023-02-12T02:40:29.725Z,-1.65
2023-02-12T02:41:29.861Z,-1.56
2023-02-12T02:42:29.712Z,-1.41
2023-02-12T02:43:29.686Z,-1.64
2023-02-12T02:44:29.682Z,-1.62
2023-02-12T02:45:29.685Z,-1.72
2023-02-12T02:46:29.684Z,-1.80
2023-02-12T02:47:29.653Z,-1.92
2023-02-12T02:48:29.640Z,-1.89
2023-02-12T02:49:29.616Z,-1.92
2023-02-12T02:50:29.605Z,-2.04
2023-02-12T02:51:29.633Z,-2.07
2023-02-12T02:52:29.589Z,-2.11
2023-02-12T02:53:29.590Z,-2.10
2023-02-12T02:54:29.591Z,-2.08
2023-02-12T02:55:29.551Z,-2.19
2023-02-12T02:56:29.567Z,-2.26
2023-02-12T02:57:29.538Z,-2.28
2023-02-12T02:58:29.534Z,-2.33
2023-02-12T02:59:29.523Z,-2.35
2023-02-12T03:00:29.513Z,-2.24
2023-02-12T03:01:29.595Z,-2.24
2023-02-12T03:02:29.495Z,-2.13
2023-02-12T03:03:29.502Z,-2.06
2023-02-12T03:04:29.463Z,-2.22
2023-02-12T03:05:29.485Z,-2.26
2023-02-12T03:06:29.549Z,-2.19
2023-02-12T03:07:29.554Z,-2.29
2023-02-12T03:08:29.484Z,-2.40
2023-02-12T03:09:29.572Z,-2.43
2023-02-12T03:10:29.413Z,-2.33
2023-02-12T03:11:29.403Z,-2.37
2023-02-12T03:12:29.449Z,-2.44
2023-02-12T03:13:29.382Z,-2.50
2023-02-12T03:14:29.388Z,-2.43
2023-02-12T03:15:29.348Z,-2.41
2023-02-12T03:16:29.485Z,-2.41
2023-02-12T03:17:29.322Z,-2.47
2023-02-12T03:18:29.330Z,-2.50
2023-02-12T03:19:29.435Z,-2.46
2023-02-12T03:20:29.290Z,-2.41
2023-02-12T03:21:29.296Z,-2.47
2023-02-12T03:22:29.271Z,-2.51
2023-02-12T03:23:29.314Z,-2.50
2023-02-12T03:24:29.272Z,-2.44
2023-02-12T03:25:29.241Z,-2.38
2023-02-12T03:26:29.265Z,-2.41
2023-02-12T03:27:29.239Z,-2.46
2023-02-12T03:28:29.272Z,-2.51
2023-02-12T03:29:29.217Z,-2.56
2023-02-12T03:30:29.234Z,-2.62
2023-02-12T03:31:29.312Z,-2.68
2023-02-12T03:32:29.181Z,-2.74
2023-02-12T03:33:29.167Z,-2.76
2023-02-12T03:34:29.185Z,-2.74
2023-02-12T03:35:29.157Z,-2.76
2023-02-12T03:36:29.158Z,-2.72
2023-02-12T03:37:29.134Z,-2.76
2023-02-12T03:38:29.201Z,-2.84
2023-02-12T03:39:29.107Z,-2.83
2023-02-12T03:40:29.110Z,-2.87
2023-02-12T03:41:29.151Z,-2.82
2023-02-12T03:42:29.112Z,-2.80
2023-02-12T03:43:29.116Z,-2.51
2023-02-12T03:44:29.111Z,-2.29
2023-02-12T03:45:29.177Z,-2.33
2023-02-12T03:46:29.127Z,-2.35
2023-02-12T03:47:29.018Z,-2.35
2023-02-12T03:48:29.167Z,-2.40
2023-02-12T03:49:28.994Z,-2.22
2023-02-12T03:50:28.987Z,-2.01
2023-02-12T03:51:29.018Z,-2.08
2023-02-12T03:52:28.980Z,-2.08
2023-02-12T03:53:29.146Z,-2.21
2023-02-12T03:54:28.950Z,-2.37
2023-02-12T03:55:28.946Z,-2.32
2023-02-12T03:56:28.954Z,-2.47
2023-02-12T03:57:28.983Z,-2.44
2023-02-12T03:58:28.900Z,-2.58
2023-02-12T03:59:28.898Z,-2.62
2023-02-12T04:00:28.873Z,-2.65
2023-02-12T04:01:29.067Z,-2.65
2023-02-12T04:02:28.869Z,-2.68
2023-02-12T04:03:28.891Z,-2.66
2023-02-12T04:04:28.924Z,-2.74
2023-02-12T04:05:28.825Z,-2.61
2023-02-12T04:06:28.850Z,-2.38
2023-02-12T04:07:28.879Z,-2.18
2023-02-12T04:08:28.802Z,-2.21
2023-02-12T04:09:28.833Z,-2.26
2023-02-12T04:10:28.775Z,-2.35
2023-02-12T04:11:28.772Z,-2.35
2023-02-12T04:12:28.768Z,-2.48
2023-02-12T04:13:28.755Z,-2.47
2023-02-12T04:14:28.785Z,-2.53
2023-02-12T04:15:28.734Z,-2.61
2023-02-12T04:16:28.745Z,-2.68
2023-02-12T04:17:28.720Z,-2.62
2023-02-12T04:18:28.745Z,-2.71
2023-02-12T04:19:28.688Z,-2.66
2023-02-12T04:20:28.703Z,-2.74
2023-02-12T04:21:28.679Z,-2.74
2023-02-12T04:22:28.721Z,-2.93
2023-02-12T04:23:28.655Z,-2.80
2023-02-12T04:24:28.633Z,-2.84
2023-02-12T04:25:28.623Z,-2.87
2023-02-12T04:26:28.610Z,-2.93
2023-02-12T04:27:28.688Z,-2.89
2023-02-12T04:28:28.643Z,-2.89
2023-02-12T04:29:28.586Z,-2.89
2023-02-12T04:30:28.743Z,-2.68
2023-02-12T04:31:28.771Z,-2.71
2023-02-12T04:32:28.570Z,-2.76
2023-02-12T04:33:28.541Z,-2.72
2023-02-12T04:34:28.563Z,-2.72
2023-02-12T04:35:28.540Z,-2.74
2023-02-12T04:36:28.523Z,-2.84
2023-02-12T04:37:28.525Z,-2.76
2023-02-12T04:38:28.499Z,-2.64
2023-02-12T04:39:28.497Z,-2.61
2023-02-12T04:40:28.490Z,-2.68
2023-02-12T04:41:28.457Z,-2.64
2023-02-12T04:42:28.460Z,-2.76
2023-02-12T04:43:28.474Z,-2.80
2023-02-12T04:44:28.428Z,-2.74
2023-02-12T04:45:28.421Z,-2.79
2023-02-12T04:46:28.455Z,-2.82
2023-02-12T04:47:28.416Z,-2.71
2023-02-12T04:48:28.430Z,-2.65
2023-02-12T04:49:28.493Z,-2.71
2023-02-12T04:50:28.422Z,-2.62
2023-02-12T04:51:28.358Z,-2.46
2023-02-12T04:52:28.369Z,-2.07
2023-02-12T04:53:28.331Z,-2.13
2023-02-12T04:54:28.334Z,-2.24
2023-02-12T04:55:28.334Z,-2.25
2023-02-12T04:56:28.318Z,-2.19
2023-02-12T04:57:28.330Z,-2.22
2023-02-12T04:58:28.297Z,-2.19
2023-02-12T04:59:28.269Z,-2.32
2023-02-12T05:00:28.261Z,-2.37
2023-02-12T05:01:31.014Z,-2.41
2023-02-12T05:02:28.303Z,-2.48
2023-02-12T05:03:28.238Z,-2.51
2023-02-12T05:04:28.240Z,-2.50
2023-02-12T05:05:28.217Z,-2.62
2023-02-12T05:06:28.202Z,-2.71
2023-02-12T05:07:28.210Z,-2.64
2023-02-12T05:08:28.185Z,-2.48
2023-02-12T05:09:28.168Z,-2.50
2023-02-12T05:10:28.210Z,-2.55
2023-02-12T05:11:28.171Z,-2.55
2023-02-12T05:12:28.156Z,-2.55
2023-02-12T05:13:28.132Z,-2.66
2023-02-12T05:14:28.122Z,-2.68
2023-02-12T05:15:28.158Z,-2.74
2023-02-12T05:16:28.157Z,-2.76
2023-02-12T05:17:28.126Z,-2.87
2023-02-12T05:18:28.088Z,-2.82
2023-02-12T05:19:28.080Z,-2.82
2023-02-12T05:20:28.065Z,-2.90
2023-02-12T05:21:28.051Z,-2.94
2023-02-12T05:22:28.059Z,-3.02
2023-02-12T05:23:28.069Z,-2.95
2023-02-12T05:24:28.019Z,-2.83
2023-02-12T05:25:28.054Z,-2.59
2023-02-12T05:26:28.038Z,-2.19
2023-02-12T05:27:28.002Z,-1.92
2023-02-12T05:28:28.120Z,-1.72
2023-02-12T05:29:27.968Z,-1.75
2023-02-12T05:30:27.961Z,-1.93
2023-02-12T05:31:28.105Z,-2.14
2023-02-12T05:32:27.950Z,-2.37
2023-02-12T05:33:27.922Z,-2.32
2023-02-12T05:34:27.942Z,-2.43
2023-02-12T05:35:27.899Z,-2.44
2023-02-12T05:36:27.909Z,-2.35
2023-02-12T05:37:27.895Z,-2.44
2023-02-12T05:38:27.907Z,-2.37
2023-02-12T05:39:27.860Z,-2.37
2023-02-12T05:40:27.858Z,-2.40
2023-02-12T05:41:27.835Z,-2.61
2023-02-12T05:42:27.848Z,-2.71
2023-02-12T05:43:27.836Z,-2.59
2023-02-12T05:44:27.808Z,-2.61
2023-02-12T05:45:27.851Z,-2.65
2023-02-12T05:46:27.861Z,-2.65
2023-02-12T05:47:27.803Z,-2.66
2023-02-12T05:48:27.763Z,-2.79
2023-02-12T05:49:27.756Z,-2.80
2023-02-12T05:50:27.748Z,-2.76
2023-02-12T05:51:27.771Z,-2.74
2023-02-12T05:52:27.741Z,-2.72
2023-02-12T05:53:27.720Z,-2.66
2023-02-12T05:54:27.709Z,-2.65
2023-02-12T05:55:27.693Z,-2.79
2023-02-12T05:56:27.690Z,-2.76
2023-02-12T05:57:27.767Z,-2.84
2023-02-12T05:58:27.683Z,-2.86
2023-02-12T05:59:27.679Z,-2.79
2023-02-12T06:00:27.670Z,-2.56
2023-02-12T06:01:27.627Z,-2.38
2023-02-12T06:02:27.793Z,-2.29
2023-02-12T06:03:27.644Z,-2.38
2023-02-12T06:04:27.716Z,-2.51
2023-02-12T06:05:27.590Z,-2.50
2023-02-12T06:06:27.627Z,-2.51
2023-02-12T06:07:27.575Z,-2.64
2023-02-12T06:08:27.582Z,-2.68
2023-02-12T06:09:27.556Z,-2.82
2023-02-12T06:10:27.550Z,-2.84
2023-02-12T06:11:27.558Z,-2.80
2023-02-12T06:12:27.566Z,-2.87
2023-02-12T06:13:27.519Z,-2.83
2023-02-12T06:14:29.147Z,-2.46
2023-02-12T06:15:27.515Z,-2.40
2023-02-12T06:16:27.570Z,-2.37
2023-02-12T06:17:27.481Z,-2.48
2023-02-12T06:18:27.469Z,-2.46
2023-02-12T06:19:27.461Z,-2.56
2023-02-12T06:20:27.442Z,-2.61
2023-02-12T06:21:27.458Z,-2.55
2023-02-12T06:22:27.441Z,-2.68
2023-02-12T06:23:27.423Z,-2.76
2023-02-12T06:24:27.404Z,-2.80
2023-02-12T06:25:27.389Z,-2.76
2023-02-12T06:26:27.381Z,-2.80
2023-02-12T06:27:27.412Z,-2.80
2023-02-12T06:28:27.399Z,-2.74
2023-02-12T06:29:27.389Z,-2.82
2023-02-12T06:30:27.344Z,-2.79
2023-02-12T06:31:27.616Z,-2.87
2023-02-12T06:32:27.315Z,-2.93
2023-02-12T06:33:27.325Z,-2.86
2023-02-12T06:34:27.311Z,-2.90
2023-02-12T06:35:27.322Z,-2.97
2023-02-12T06:36:27.385Z,-2.98
2023-02-12T06:37:27.289Z,-3.08
2023-02-12T06:38:27.270Z,-3.10
2023-02-12T06:39:27.254Z,-3.15
2023-02-12T06:40:27.253Z,-3.10
2023-02-12T06:41:27.357Z,-3.13
2023-02-12T06:42:27.240Z,-3.13
2023-02-12T06:43:27.218Z,-3.12
2023-02-12T06:44:27.202Z,-3.12
2023-02-12T06:45:27.247Z,-2.98
2023-02-12T06:46:27.270Z,-2.77
2023-02-12T06:47:27.295Z,-2.77
2023-02-12T06:48:27.186Z,-2.77
2023-02-12T06:49:27.151Z,-2.72
2023-02-12T06:50:27.164Z,-2.72
2023-02-12T06:51:27.142Z,-2.80
2023-02-12T06:52:27.390Z,-2.82
2023-02-12T06:53:27.114Z,-2.87
2023-02-12T06:54:27.103Z,-2.79
2023-02-12T06:55:27.100Z,-2.87
2023-02-12T06:56:27.127Z,-2.86
2023-02-12T06:57:27.118Z,-2.90
2023-02-12T06:58:27.094Z,-2.69
2023-02-12T06:59:27.080Z,-2.77
2023-02-12T07:00:27.130Z,-2.74
2023-02-12T07:01:27.059Z,-2.90
2023-02-12T07:02:27.062Z,-2.86
2023-02-12T07:03:27.137Z,-2.77
2023-02-12T07:04:27.076Z,-2.62
2023-02-12T07:05:27.004Z,-2.51
2023-02-12T07:06:26.988Z,-2.65
2023-02-12T07:07:27.004Z,-2.68
2023-02-12T07:08:26.975Z,-2.65
2023-02-12T07:09:26.948Z,-2.65
2023-02-12T07:10:26.962Z,-2.64
2023-02-12T07:11:26.929Z,-2.53
2023-02-12T07:12:26.929Z,-2.51
2023-02-12T07:13:26.934Z,-2.43
2023-02-12T07:14:26.901Z,-2.38
2023-02-12T07:15:26.910Z,-2.38
2023-02-12T07:16:26.953Z,-2.41
2023-02-12T07:17:26.895Z,-2.44
2023-02-12T07:18:26.875Z,-2.38
2023-02-12T07:19:26.867Z,-2.44
2023-02-12T07:20:26.844Z,-2.29
2023-02-12T07:21:26.830Z,-2.29
2023-02-12T07:22:26.835Z,-2.16
2023-02-12T07:23:26.812Z,-2.10
2023-02-12T07:24:26.826Z,-2.13
2023-02-12T07:25:26.802Z,-2.04
2023-02-12T07:26:26.773Z,-1.92
2023-02-12T07:27:26.806Z,-1.86
2023-02-12T07:28:26.812Z,-1.80
2023-02-12T07:29:26.756Z,-1.74
2023-02-12T07:30:26.735Z,-1.62
2023-02-12T07:31:26.973Z,-1.54
2023-02-12T07:32:26.743Z,-1.51
2023-02-12T07:33:26.703Z,-1.44
2023-02-12T07:34:26.705Z,-1.47
2023-02-12T07:35:26.708Z,-1.33
2023-02-12T07:36:26.760Z,-1.36
2023-02-12T07:37:26.672Z,-1.29
2023-02-12T07:38:26.671Z,-1.17
2023-02-12T07:39:26.683Z,-1.14
2023-02-12T07:40:26.644Z,-1.08
2023-02-12T07:41:26.633Z,-1.03
2023-02-12T07:42:26.633Z,-0.70
2023-02-12T07:43:26.616Z,-0.20
2023-02-12T07:44:26.601Z,0.60
2023-02-12T07:45:26.646Z,1.35
2023-02-12T07:46:26.578Z,1.95
2023-02-12T07:47:26.575Z,2.47
2023-02-12T07:48:26.550Z,2.97
2023-02-12T07:49:26.545Z,3.13
2023-02-12T07:50:26.535Z,3.05
2023-02-12T07:51:26.565Z,2.98
2023-02-12T07:52:26.553Z,3.05
2023-02-12T07:53:26.515Z,3.52
2023-02-12T07:54:26.524Z,4.00
2023-02-12T07:55:26.478Z,4.32
2023-02-12T07:56:26.470Z,4.53
2023-02-12T07:57:26.483Z,4.72
2023-02-12T07:58:26.442Z,5.05
2023-02-12T07:59:26.440Z,5.30
2023-02-12T08:00:26.428Z,5.02
2023-02-12T08:01:26.421Z,5.08
2023-02-12T08:02:26.483Z,5.32
2023-02-12T08:03:26.403Z,5.08
2023-02-12T08:04:26.441Z,4.72
2023-02-12T08:05:26.379Z,4.74
2023-02-12T08:06:26.371Z,5.06
2023-02-12T08:07:26.412Z,5.66
2023-02-12T08:08:26.344Z,6.10
2023-02-12T08:09:26.328Z,6.71
2023-02-12T08:10:26.326Z,7.08
2023-02-12T08:11:26.316Z,7.48
2023-02-12T08:12:26.320Z,7.42
2023-02-12T08:13:26.288Z,7.24
2023-02-12T08:14:26.277Z,7.21
2023-02-12T08:15:26.266Z,7.04
2023-02-12T08:16:26.344Z,6.64
2023-02-12T08:17:26.273Z,6.63
2023-02-12T08:18:26.233Z,6.57
2023-02-12T08:19:26.952Z,6.73
2023-02-12T08:20:26.214Z,6.79
2023-02-12T08:21:26.214Z,6.97
2023-02-12T08:22:26.230Z,6.79
2023-02-12T08:23:26.228Z,6.33
2023-02-12T08:24:26.198Z,6.45
2023-02-12T08:25:26.180Z,6.57
2023-02-12T08:26:26.168Z,6.27
2023-02-12T08:27:26.143Z,6.50
2023-02-12T08:28:26.196Z,6.43
2023-02-12T08:29:26.300Z,6.58
2023-02-12T08:30:26.136Z,6.90
2023-02-12T08:31:26.253Z,6.91
2023-02-12T08:32:26.084Z,6.99
2023-02-12T08:33:26.097Z,6.90
2023-02-12T08:34:26.107Z,6.79
2023-02-12T08:35:26.072Z,6.87
2023-02-12T08:36:26.089Z,6.93
2023-02-12T08:37:26.044Z,6.99
2023-02-12T08:38:26.057Z,6.97
2023-02-12T08:39:26.036Z,6.94
2023-02-12T08:40:26.036Z,6.90
2023-02-12T08:41:26.009Z,6.96
2023-02-12T08:42:26.008Z,6.96
2023-02-12T08:43:26.221Z,7.19
2023-02-12T08:44:25.975Z,7.39
2023-02-12T08:45:25.957Z,7.63
2023-02-12T08:46:26.061Z,7.67
2023-02-12T08:47:25.930Z,7.77
2023-02-12T08:48:25.930Z,7.67
2023-02-12T08:49:25.920Z,7.66
2023-02-12T08:50:25.922Z,7.76
2023-02-12T08:51:25.901Z,7.99
2023-02-12T08:52:25.898Z,8.13
2023-02-12T08:53:25.892Z,8.02
2023-02-12T08:54:25.861Z,8.03
2023-02-12T08:55:25.857Z,8.42
2023-02-12T08:56:25.863Z,8.43
2023-02-12T08:57:25.843Z,8.13
2023-02-12T08:58:25.821Z,8.02
2023-02-12T08:59:25.857Z,8.12
2023-02-12T09:00:25.855Z,8.18
2023-02-12T09:01:25.880Z,8.36
2023-02-12T09:02:25.826Z,8.24
2023-02-12T09:03:25.780Z,7.96
2023-02-12T09:04:25.744Z,7.82
2023-02-12T09:05:25.728Z,7.99
2023-02-12T09:06:25.739Z,7.24
2023-02-12T09:07:25.711Z,6.65
2023-02-12T09:08:25.716Z,6.76
2023-02-12T09:09:25.698Z,6.87
2023-02-12T09:10:25.762Z,7.18
2023-02-12T09:11:25.703Z,7.30
2023-02-12T09:12:25.653Z,7.29
2023-02-12T09:13:25.660Z,7.44
2023-02-12T09:14:25.647Z,7.27
2023-02-12T09:15:25.650Z,7.30
2023-02-12T09:16:25.698Z,7.42
2023-02-12T09:17:25.634Z,7.26
2023-02-12T09:18:25.611Z,7.42
2023-02-12T09:19:25.590Z,7.66
2023-02-12T09:20:25.595Z,7.69
2023-02-12T09:21:25.554Z,8.14
2023-02-12T09:22:25.540Z,8.45
2023-02-12T09:23:25.555Z,8.29
2023-02-12T09:24:25.679Z,8.02
2023-02-12T09:25:25.543Z,8.13
2023-02-12T09:26:25.555Z,7.95
2023-02-12T09:27:25.528Z,7.96
2023-02-12T09:28:25.575Z,8.25
2023-02-12T09:29:25.469Z,7.79
2023-02-12T09:30:25.477Z,7.71
2023-02-12T09:31:25.596Z,7.70
2023-02-12T09:32:25.434Z,8.17
2023-02-12T09:33:25.457Z,8.13
2023-02-12T09:34:25.444Z,7.58
2023-02-12T09:35:25.650Z,7.84
2023-02-12T09:36:25.402Z,7.96
2023-02-12T09:37:25.419Z,8.28
2023-02-12T09:38:25.402Z,8.43
2023-02-12T09:39:25.402Z,8.27
2023-02-12T09:40:25.352Z,8.65
2023-02-12T09:41:25.345Z,8.86
2023-02-12T09:42:25.360Z,9.00
2023-02-12T09:43:25.424Z,9.00
2023-02-12T09:44:25.403Z,9.48
2023-02-12T09:45:25.302Z,9.48
2023-02-12T09:46:25.428Z,9.60
2023-02-12T09:47:25.276Z,8.88
2023-02-12T09:48:25.264Z,8.32
2023-02-12T09:49:25.423Z,8.65
2023-02-12T09:50:25.273Z,8.89
2023-02-12T09:51:25.240Z,9.42
2023-02-12T09:52:25.252Z,9.58
2023-02-12T09:53:25.227Z,9.58
2023-02-12T09:54:25.251Z,9.04
2023-02-12T09:55:25.221Z,8.93
2023-02-12T09:56:25.192Z,8.68
2023-02-12T09:57:25.190Z,8.55
2023-02-12T09:58:25.232Z,8.63
2023-02-12T09:59:25.245Z,8.54
2023-02-12T10:00:27.114Z,8.89
2023-02-12T10:01:25.220Z,8.93
2023-02-12T10:02:25.156Z,8.67
2023-02-12T10:03:25.121Z,8.82
2023-02-12T10:04:25.215Z,9.34
2023-02-12T10:05:25.136Z,9.96
2023-02-12T10:06:25.069Z,9.78
2023-02-12T10:07:25.060Z,9.52
2023-02-12T10:08:25.101Z,9.48
2023-02-12T10:09:25.041Z,9.20
2023-02-12T10:10:25.096Z,9.45
2023-02-12T10:11:25.024Z,9.62
2023-02-12T10:12:25.960Z,9.78
2023-02-12T10:13:25.285Z,9.93
2023-02-12T10:14:25.004Z,10.17
2023-02-12T10:15:25.047Z,10.14
2023-02-12T10:16:24.968Z,10.58
2023-02-12T10:17:24.960Z,10.87
2023-02-12T10:18:24.985Z,10.58
2023-02-12T10:19:24.948Z,10.43
2023-02-12T10:20:24.923Z,10.13
2023-02-12T10:21:24.937Z,9.88
2023-02-12T10:22:24.899Z,9.73
2023-02-12T10:23:24.917Z,9.73
2023-02-12T10:24:24.879Z,9.38
2023-02-12T10:25:24.886Z,9.32
2023-02-12T10:26:24.864Z,9.53
2023-02-12T10:27:24.960Z,9.06
2023-02-12T10:28:25.059Z,9.26
2023-02-12T10:29:24.841Z,9.10
2023-02-12T10:30:24.870Z,9.45
2023-02-12T10:31:25.010Z,9.81
2023-02-12T10:32:24.798Z,9.96
2023-02-12T10:33:24.779Z,9.74
2023-02-12T10:34:24.787Z,9.86
2023-02-12T10:35:24.803Z,9.44
2023-02-12T10:36:25.107Z,9.37
2023-02-12T10:37:24.739Z,9.27
2023-02-12T10:38:24.726Z,9.38
2023-02-12T10:39:24.809Z,9.22
2023-02-12T10:40:24.751Z,9.37
2023-02-12T10:41:24.725Z,9.49
2023-02-12T10:42:24.681Z,9.55
2023-02-12T10:43:24.679Z,9.20
2023-02-12T10:44:24.699Z,9.22
2023-02-12T10:45:24.652Z,9.37
2023-02-12T10:46:24.690Z,9.42
2023-02-12T10:47:24.657Z,9.74
2023-02-12T10:48:24.769Z,9.86
2023-02-12T10:49:24.601Z,9.85
2023-02-12T10:50:24.612Z,9.91
2023-02-12T10:51:24.579Z,10.43
2023-02-12T10:52:24.570Z,10.76
2023-02-12T10:53:24.614Z,10.47
2023-02-12T10:54:24.551Z,10.72
2023-02-12T10:55:24.533Z,11.23
2023-02-12T10:56:24.528Z,11.51
2023-02-12T10:57:27.961Z,11.87
2023-02-12T10:58:28.003Z,12.00
2023-02-12T10:59:27.888Z,11.70
2023-02-12T11:00:27.943Z,11.35
2023-02-12T11:01:27.933Z,11.67
2023-02-12T11:02:27.896Z,12.48
2023-02-12T11:03:27.894Z,12.95
2023-02-12T11:04:27.874Z,13.01
2023-02-12T11:05:27.821Z,13.24
2023-02-12T11:06:27.840Z,12.71
2023-02-12T11:07:27.905Z,11.96
2023-02-12T11:08:27.816Z,11.82
2023-02-12T11:09:27.860Z,11.35
2023-02-12T11:10:27.783Z,10.99
2023-02-12T11:11:27.785Z,11.12
2023-02-12T11:12:27.870Z,11.53
2023-02-12T11:13:27.751Z,11.90
2023-02-12T11:14:27.734Z,12.15
2023-02-12T11:15:27.780Z,12.08
2023-02-12T11:16:27.783Z,12.41
2023-02-12T11:17:27.700Z,12.26
2023-02-12T11:18:27.721Z,12.07
2023-02-12T11:19:27.677Z,11.62
2023-02-12T11:20:27.669Z,11.42
2023-02-12T11:21:27.753Z,11.30
2023-02-12T11:22:27.654Z,11.31
2023-02-12T11:23:27.664Z,11.48
2023-02-12T11:24:27.647Z,11.28
2023-02-12T11:25:27.757Z,11.11
2023-02-12T11:26:27.623Z,11.06
2023-02-12T11:27:27.591Z,11.26
2023-02-12T11:28:27.744Z,11.24
2023-02-12T11:29:27.599Z,11.17
2023-02-12T11:30:27.806Z,11.57
2023-02-12T11:31:27.675Z,11.90
2023-02-12T11:32:27.527Z,12.00
2023-02-12T11:33:27.625Z,11.87
2023-02-12T11:34:27.528Z,11.98
2023-02-12T11:35:27.503Z,11.63
2023-02-12T11:36:27.512Z,11.42
2023-02-12T11:37:27.487Z,11.30
2023-02-12T11:38:27.511Z,11.75
2023-02-12T11:39:27.630Z,12.04
2023-02-12T11:40:27.453Z,12.18
2023-02-12T11:41:27.433Z,12.37
2023-02-12T11:42:28.165Z,12.62
2023-02-12T11:43:27.445Z,12.69
2023-02-12T11:44:27.402Z,12.55
2023-02-12T11:45:27.414Z,12.40
2023-02-12T11:46:27.478Z,12.43
2023-02-12T11:47:27.450Z,12.25
2023-02-12T11:48:27.463Z,12.01
2023-02-12T11:49:27.500Z,11.79
2023-02-12T11:50:27.412Z,11.78
2023-02-12T11:51:27.366Z,11.90
2023-02-12T11:52:27.319Z,12.33
2023-02-12T11:53:27.312Z,11.75
2023-02-12T11:54:27.311Z,12.13
2023-02-12T11:55:27.306Z,12.41
2023-02-12T11:56:27.369Z,12.43
2023-02-12T11:57:27.422Z,12.00
2023-02-12T11:58:27.277Z,12.34
2023-02-12T11:59:27.253Z,12.16
2023-02-12T12:00:27.258Z,12.05
2023-02-12T12:01:27.225Z,12.19
2023-02-12T12:02:27.204Z,11.93
2023-02-12T12:03:27.353Z,11.93
2023-02-12T12:04:27.185Z,12.29
2023-02-12T12:05:27.196Z,12.52
2023-02-12T12:06:27.260Z,12.29
2023-02-12T12:07:27.152Z,11.87
2023-02-12T12:08:27.159Z,11.90
2023-02-12T12:09:27.162Z,11.59
2023-02-12T12:10:27.119Z,11.38
2023-02-12T12:11:27.126Z,11.56
2023-02-12T12:12:27.097Z,11.75
2023-02-12T12:13:27.117Z,11.57
2023-02-12T12:14:27.240Z,11.27
2023-02-12T12:15:27.080Z,11.45
2023-02-12T12:16:27.260Z,11.79
2023-02-12T12:17:27.120Z,12.31
2023-02-12T12:18:27.080Z,12.48
2023-02-12T12:19:29.008Z,12.71
2023-02-12T12:20:27.019Z,12.85
2023-02-12T12:21:26.998Z,13.01
2023-02-12T12:22:27.033Z,12.85
2023-02-12T12:23:27.098Z,13.04
2023-02-12T12:24:26.981Z,12.89
2023-02-12T12:25:26.974Z,12.51
2023-02-12T12:26:26.991Z,12.41
2023-02-12T12:27:27.001Z,12.66
2023-02-12T12:28:26.968Z,12.54
2023-02-12T12:29:26.917Z,12.46
2023-02-12T12:30:26.901Z,12.26
2023-02-12T12:31:27.011Z,12.08
2023-02-12T12:32:26.931Z,11.93
2023-02-12T12:33:26.887Z,11.63
2023-02-12T12:34:26.860Z,11.69
2023-02-12T12:35:26.876Z,11.64
2023-02-12T12:36:26.862Z,11.57
2023-02-12T12:37:26.843Z,11.48
2023-02-12T12:38:26.893Z,11.53
2023-02-12T12:39:26.807Z,11.62
2023-02-12T12:40:26.834Z,11.79
2023-02-12T12:41:26.953Z,12.40
2023-02-12T12:42:28.414Z,12.76
2023-02-12T12:43:26.798Z,12.77
2023-02-12T12:44:26.802Z,12.48
2023-02-12T12:45:26.778Z,12.40
2023-02-12T12:46:26.731Z,12.33
2023-02-12T12:47:26.721Z,12.00
2023-02-12T12:48:26.724Z,11.90
2023-02-12T12:49:27.476Z,11.56
2023-02-12T12:50:26.736Z,11.35
2023-02-12T12:51:26.898Z,11.13
2023-02-12T12:52:26.683Z,11.06
2023-02-12T12:53:26.704Z,10.80
2023-02-12T12:54:26.807Z,11.03
2023-02-12T12:55:26.638Z,11.26
2023-02-12T12:56:26.669Z,11.35
2023-02-12T12:57:26.611Z,11.23
2023-02-12T12:58:26.682Z,11.35
2023-02-12T12:59:26.891Z,11.57
2023-02-12T13:00:26.656Z,11.66
2023-02-12T13:01:26.665Z,11.67